createdAt,value
2018-12-06T00:01:49.194Z,12.11
2018-12-06T00:04:17.860Z,12.11
2018-12-06T00:06:46.495Z,12.11
2018-12-06T00:09:15.132Z,12.12
2018-12-06T00:11:43.758Z,12.12
2018-12-06T00:14:12.410Z,12.12
2018-12-06T00:16:41.060Z,12.12
2018-12-06T00:19:10.787Z,12.14
2018-12-06T00:21:39.434Z,12.14
2018-12-06T00:24:08.088Z,12.14
2018-12-06T00:26:36.859Z,12.14
2018-12-06T00:29:05.630Z,12.15
2018-12-06T00:31:34.275Z,12.15
2018-12-06T00:34:02.902Z,12.14
2018-12-06T00:36:31.544Z,12.14
2018-12-06T00:39:00.183Z,12.13
2018-12-06T00:41:28.802Z,12.14
2018-12-06T00:43:57.433Z,12.13
2018-12-06T00:46:26.070Z,12.11
2018-12-06T00:48:54.718Z,12.10
2018-12-06T00:51:23.369Z,12.10
2018-12-06T00:53:52.012Z,12.09
2018-12-06T00:56:20.643Z,12.08
2018-12-06T00:58:49.274Z,12.06
2018-12-06T01:01:18.056Z,12.07
2018-12-06T01:03:46.682Z,12.07
2018-12-06T01:06:15.325Z,12.07
2018-12-06T01:08:43.967Z,12.07
2018-12-06T01:11:12.607Z,12.05
2018-12-06T01:13:41.244Z,12.04
2018-12-06T01:16:09.826Z,12.02
2018-12-06T01:18:38.489Z,12.00
2018-12-06T01:21:07.142Z,11.99
2018-12-06T01:23:36.662Z,11.99
2018-12-06T01:26:05.300Z,11.96
2018-12-06T01:28:33.946Z,11.95
2018-12-06T01:31:02.573Z,11.95
2018-12-06T01:33:31.217Z,11.94
2018-12-06T01:35:59.854Z,11.94
2018-12-06T01:38:28.511Z,11.93
2018-12-06T01:40:57.150Z,11.93
2018-12-06T01:43:25.774Z,11.93
2018-12-06T01:45:54.394Z,11.92
2018-12-06T01:48:23.166Z,11.92
2018-12-06T01:50:51.818Z,11.92
2018-12-06T01:53:20.454Z,11.91
2018-12-06T01:55:49.068Z,11.91
2018-12-06T01:58:18.473Z,11.92
2018-12-06T02:00:47.106Z,11.93
2018-12-06T02:03:15.738Z,11.94
2018-12-06T02:05:44.395Z,11.96
2018-12-06T02:08:13.042Z,11.96
2018-12-06T02:10:41.686Z,11.96
2018-12-06T02:13:10.329Z,11.98
2018-12-06T02:15:38.974Z,11.99
2018-12-06T02:18:07.606Z,11.99
2018-12-06T02:20:36.242Z,12.01
2018-12-06T02:23:04.856Z,12.01
2018-12-06T02:25:33.516Z,12.01
2018-12-06T02:28:02.187Z,12.02
2018-12-06T02:30:30.882Z,12.04
2018-12-06T02:32:59.571Z,12.04
2018-12-06T02:35:28.255Z,12.05
2018-12-06T02:37:56.930Z,12.05
2018-12-06T02:40:25.583Z,12.06
2018-12-06T02:42:54.235Z,12.06
2018-12-06T02:45:22.896Z,12.05
2018-12-06T02:47:51.538Z,12.05
2018-12-06T02:50:20.171Z,12.04
2018-12-06T02:52:48.811Z,12.03
2018-12-06T02:55:17.471Z,12.01
2018-12-06T02:57:46.129Z,12.00
2018-12-06T03:00:14.786Z,12.00
2018-12-06T03:02:43.455Z,11.98
2018-12-06T03:05:12.079Z,11.98
2018-12-06T03:07:40.740Z,11.96
2018-12-06T03:10:09.458Z,11.94
2018-12-06T03:12:38.128Z,11.93
2018-12-06T03:15:07.115Z,11.91
2018-12-06T03:17:35.762Z,11.92
2018-12-06T03:20:06.215Z,11.91
2018-12-06T03:22:34.884Z,11.90
2018-12-06T03:25:03.691Z,11.90
2018-12-06T03:27:32.447Z,11.88
2018-12-06T03:30:01.221Z,11.86
2018-12-06T03:32:29.942Z,11.84
2018-12-06T03:34:58.611Z,11.82
2018-12-06T03:37:27.217Z,11.81
2018-12-06T03:39:56.066Z,11.82
2018-12-06T03:42:24.936Z,11.80
2018-12-06T03:44:53.575Z,11.80
2018-12-06T03:47:22.337Z,11.79
2018-12-06T03:49:51.100Z,11.79
2018-12-06T03:52:19.968Z,11.80
2018-12-06T03:54:48.614Z,11.80
2018-12-06T03:57:17.231Z,11.79
2018-12-06T03:59:45.884Z,11.79
2018-12-06T04:02:14.648Z,11.78
2018-12-06T04:04:43.309Z,11.79
2018-12-06T04:07:11.958Z,11.78
2018-12-06T04:09:40.603Z,11.78
2018-12-06T04:12:09.252Z,11.78
2018-12-06T04:14:37.941Z,11.79
2018-12-06T04:17:06.722Z,11.78
2018-12-06T04:19:35.366Z,11.77
2018-12-06T04:22:04.047Z,11.76
2018-12-06T04:24:32.674Z,11.76
2018-12-06T04:27:01.320Z,11.74
2018-12-06T04:29:29.956Z,11.73
2018-12-06T04:31:58.602Z,11.72
2018-12-06T04:34:27.267Z,11.73
2018-12-06T04:36:55.886Z,11.73
2018-12-06T04:39:24.536Z,11.72
2018-12-06T04:41:53.175Z,11.72
2018-12-06T04:44:21.807Z,11.73
2018-12-06T04:46:50.451Z,11.71
2018-12-06T04:49:19.091Z,11.72
2018-12-06T04:51:47.734Z,11.71
2018-12-06T04:54:16.361Z,11.72
2018-12-06T04:56:45.006Z,11.70
2018-12-06T04:59:13.670Z,11.70
2018-12-06T05:01:42.306Z,11.69
2018-12-06T05:04:10.970Z,11.68
2018-12-06T05:06:39.654Z,11.68
2018-12-06T05:09:08.702Z,11.68
2018-12-06T05:11:37.334Z,11.68
2018-12-06T05:14:06.003Z,11.68
2018-12-06T05:16:34.642Z,11.67
2018-12-06T05:19:03.322Z,11.67
2018-12-06T05:21:31.927Z,11.66
2018-12-06T05:24:00.730Z,11.66
2018-12-06T05:26:29.362Z,11.66
2018-12-06T05:28:57.995Z,11.67
2018-12-06T05:31:26.607Z,11.66
2018-12-06T05:33:55.328Z,11.65
2018-12-06T05:36:23.981Z,11.64
2018-12-06T05:38:52.614Z,11.66
2018-12-06T05:41:21.287Z,11.66
2018-12-06T05:43:49.919Z,11.66
2018-12-06T05:46:18.566Z,11.67
2018-12-06T05:48:47.234Z,11.67
2018-12-06T05:51:15.914Z,11.67
2018-12-06T05:53:44.547Z,11.67
2018-12-06T05:56:13.170Z,11.69
2018-12-06T05:58:41.817Z,11.68
2018-12-06T06:01:10.508Z,11.69
2018-12-06T06:03:39.130Z,11.70
2018-12-06T06:06:07.812Z,11.72
2018-12-06T06:08:36.441Z,11.71
2018-12-06T06:11:05.124Z,11.72
2018-12-06T06:13:33.757Z,11.71
2018-12-06T06:16:02.381Z,11.72
2018-12-06T06:18:31.008Z,11.74
2018-12-06T06:20:59.667Z,11.73
2018-12-06T06:23:28.959Z,11.75
2018-12-06T06:25:57.603Z,11.75
2018-12-06T06:28:26.273Z,11.77
2018-12-06T06:30:54.914Z,11.78
2018-12-06T06:33:23.587Z,11.77
2018-12-06T06:35:52.274Z,11.78
2018-12-06T06:38:20.887Z,11.77
2018-12-06T06:40:49.550Z,11.78
2018-12-06T06:43:18.178Z,11.77
2018-12-06T06:45:46.818Z,11.79
2018-12-06T06:48:15.475Z,11.78
2018-12-06T06:50:44.155Z,11.79
2018-12-06T06:53:12.907Z,11.80
2018-12-06T06:55:41.517Z,11.80
2018-12-06T06:58:10.156Z,11.80
2018-12-06T07:00:38.812Z,11.82
2018-12-06T07:03:07.477Z,11.80
2018-12-06T07:05:36.130Z,11.78
2018-12-06T07:08:04.786Z,11.78
2018-12-06T07:10:33.418Z,11.77
2018-12-06T07:13:02.089Z,11.79
2018-12-06T07:15:30.800Z,11.79
2018-12-06T07:17:59.459Z,11.80
2018-12-06T07:20:28.091Z,11.79
2018-12-06T07:22:56.745Z,11.79
2018-12-06T07:25:25.402Z,11.80
2018-12-06T07:27:54.049Z,11.81
2018-12-06T07:30:22.695Z,11.79
2018-12-06T07:32:51.359Z,11.79
2018-12-06T07:35:20.018Z,11.80
2018-12-06T07:37:48.659Z,11.80
2018-12-06T07:40:17.291Z,11.79
2018-12-06T07:42:45.925Z,11.78
2018-12-06T07:45:14.634Z,11.79
2018-12-06T07:47:43.278Z,11.78
2018-12-06T07:50:11.936Z,11.78
2018-12-06T07:52:40.737Z,11.78
2018-12-06T07:55:09.391Z,11.79
2018-12-06T07:57:38.051Z,11.79
2018-12-06T08:00:08.173Z,11.79
2018-12-06T08:02:36.858Z,11.80
2018-12-06T08:05:06.439Z,11.79
2018-12-06T08:07:35.155Z,11.81
2018-12-06T08:10:03.974Z,11.80
2018-12-06T08:12:32.746Z,11.80
2018-12-06T08:15:01.418Z,11.81
2018-12-06T08:17:30.136Z,11.80
2018-12-06T08:19:58.840Z,11.78
2018-12-06T08:22:28.014Z,11.79
2018-12-06T08:24:56.665Z,11.79
2018-12-06T08:27:25.386Z,11.78
2018-12-06T08:29:54.074Z,11.77
2018-12-06T08:32:22.826Z,11.77
2018-12-06T08:34:51.547Z,11.77
2018-12-06T08:37:20.181Z,11.78
2018-12-06T08:39:48.812Z,11.78
2018-12-06T08:42:17.477Z,11.79
2018-12-06T08:44:46.118Z,11.79
2018-12-06T08:47:14.787Z,11.78
2018-12-06T08:49:43.463Z,11.80
2018-12-06T08:52:12.194Z,11.80
2018-12-06T08:54:41.666Z,11.82
2018-12-06T08:57:10.314Z,11.82
2018-12-06T08:59:38.980Z,11.83
2018-12-06T09:02:07.654Z,11.85
2018-12-06T09:04:37.641Z,11.87
2018-12-06T09:07:06.464Z,11.90
2018-12-06T09:09:35.110Z,11.92
2018-12-06T09:12:03.762Z,11.93
2018-12-06T09:14:32.387Z,11.97
2018-12-06T09:17:01.054Z,11.99
2018-12-06T09:19:29.710Z,12.01
2018-12-06T09:21:58.394Z,12.05
2018-12-06T09:24:27.047Z,12.06
2018-12-06T09:26:58.941Z,12.10
2018-12-06T09:29:26.408Z,12.14
2018-12-06T09:31:55.290Z,12.15
2018-12-06T09:34:24.622Z,12.17
2018-12-06T09:36:53.278Z,12.21
2018-12-06T09:39:21.902Z,12.24
2018-12-06T09:41:50.531Z,12.25
2018-12-06T09:44:19.170Z,12.26
2018-12-06T09:46:47.934Z,12.28
2018-12-06T09:49:16.573Z,12.28
2018-12-06T09:51:45.198Z,12.28
2018-12-06T09:54:13.834Z,12.30
2018-12-06T09:56:42.484Z,12.30
2018-12-06T09:59:11.162Z,12.28
2018-12-06T10:01:40.261Z,12.28
2018-12-06T10:04:08.926Z,12.29
2018-12-06T10:06:37.629Z,12.27
2018-12-06T10:09:07.282Z,12.27
2018-12-06T10:11:36.039Z,12.27
2018-12-06T10:14:04.693Z,12.25
2018-12-06T10:16:33.307Z,12.27
2018-12-06T10:19:01.934Z,12.26
2018-12-06T10:21:30.600Z,12.27
2018-12-06T10:23:59.224Z,12.26
2018-12-06T10:26:27.911Z,12.27
2018-12-06T10:28:56.559Z,12.27
2018-12-06T10:31:25.217Z,12.29
2018-12-06T10:33:54.210Z,12.30
2018-12-06T10:36:22.863Z,12.30
2018-12-06T10:38:51.491Z,12.30
2018-12-06T10:41:20.121Z,12.30
2018-12-06T10:43:48.908Z,12.30
2018-12-06T10:46:19.582Z,12.30
2018-12-06T10:48:48.216Z,12.30
2018-12-06T10:51:27.921Z,12.31
2018-12-06T10:53:56.575Z,12.30
2018-12-06T10:56:25.253Z,12.32
2018-12-06T10:58:54.054Z,12.28
2018-12-06T11:01:26.904Z,12.34
2018-12-06T11:04:00.806Z,12.35
2018-12-06T11:06:29.447Z,12.35
2018-12-06T11:08:58.226Z,12.36
2018-12-06T11:11:26.903Z,12.38
2018-12-06T11:13:55.518Z,12.37
2018-12-06T11:16:24.134Z,12.39
2018-12-06T11:18:53.271Z,12.39
2018-12-06T11:21:21.902Z,12.39
2018-12-06T11:23:50.549Z,12.41
2018-12-06T11:26:19.193Z,12.41
2018-12-06T11:28:47.839Z,12.42
2018-12-06T11:31:16.497Z,12.43
2018-12-06T11:33:45.318Z,12.45
2018-12-06T11:36:13.972Z,12.46
2018-12-06T11:38:42.645Z,12.48
2018-12-06T11:41:11.263Z,12.48
2018-12-06T11:43:39.874Z,12.48
2018-12-06T11:46:08.541Z,12.47
2018-12-06T11:48:37.174Z,12.46
2018-12-06T11:51:05.834Z,12.47
2018-12-06T11:53:34.470Z,12.47
2018-12-06T11:56:03.103Z,12.49
2018-12-06T11:58:31.726Z,12.50
2018-12-06T12:01:00.349Z,12.51
2018-12-06T12:03:28.974Z,12.50
2018-12-06T12:05:58.772Z,12.50
2018-12-06T12:08:27.639Z,12.51
2018-12-06T12:10:56.330Z,12.51
2018-12-06T12:13:24.940Z,12.52
2018-12-06T12:15:53.584Z,12.52
2018-12-06T12:18:22.207Z,12.53
2018-12-06T12:20:50.814Z,12.53
2018-12-06T12:23:19.454Z,12.54
2018-12-06T12:25:48.117Z,12.55
2018-12-06T12:28:16.763Z,12.54
2018-12-06T12:30:45.399Z,12.57
2018-12-06T12:33:14.128Z,12.57
2018-12-06T12:35:42.767Z,12.56
2018-12-06T12:38:11.962Z,12.57
2018-12-06T12:40:40.609Z,12.57
2018-12-06T12:43:09.249Z,12.59
2018-12-06T12:45:38.009Z,12.59
2018-12-06T12:48:06.676Z,12.58
2018-12-06T12:50:35.286Z,12.57
2018-12-06T12:53:03.958Z,12.55
2018-12-06T12:55:32.609Z,12.58
2018-12-06T12:58:01.251Z,12.57
2018-12-06T13:00:30.038Z,12.56
2018-12-06T13:02:58.682Z,12.59
2018-12-06T13:05:27.374Z,12.58
2018-12-06T13:07:56.007Z,12.59
2018-12-06T13:10:24.641Z,12.58
2018-12-06T13:12:53.265Z,12.57
2018-12-06T13:15:21.964Z,12.59
2018-12-06T13:17:50.618Z,12.58
2018-12-06T13:20:19.263Z,12.58
2018-12-06T13:22:47.946Z,12.58
2018-12-06T13:25:16.630Z,12.57
2018-12-06T13:27:45.427Z,12.56
2018-12-06T13:30:14.135Z,12.57
2018-12-06T13:32:42.782Z,12.57
2018-12-06T13:35:11.483Z,12.58
2018-12-06T13:37:40.137Z,12.59
2018-12-06T13:40:08.897Z,12.60
2018-12-06T13:42:37.558Z,12.59
2018-12-06T13:45:06.550Z,12.61
2018-12-06T13:47:35.218Z,12.59
2018-12-06T13:50:04.536Z,12.60
2018-12-06T13:52:33.318Z,12.61
2018-12-06T13:55:01.971Z,12.60
2018-12-06T13:57:30.646Z,12.61
2018-12-06T13:59:59.308Z,12.62
2018-12-06T14:02:27.968Z,12.60
2018-12-06T14:04:56.627Z,12.61
2018-12-06T14:07:25.262Z,12.63
2018-12-06T14:09:53.915Z,12.63
2018-12-06T14:12:22.563Z,12.64
2018-12-06T14:14:51.252Z,12.64
2018-12-06T14:17:19.910Z,12.65
2018-12-06T14:19:48.566Z,12.65
2018-12-06T14:22:17.193Z,12.66
2018-12-06T14:24:45.842Z,12.66
2018-12-06T14:27:14.492Z,12.66
2018-12-06T14:29:43.132Z,12.64
2018-12-06T14:32:11.830Z,12.65
2018-12-06T14:34:40.487Z,12.65
2018-12-06T14:37:09.154Z,12.64
2018-12-06T14:39:37.863Z,12.63
2018-12-06T14:42:06.535Z,12.63
2018-12-06T14:44:35.222Z,12.63
2018-12-06T14:47:04.019Z,12.62
2018-12-06T14:49:32.667Z,12.61
2018-12-06T14:52:01.296Z,12.62
2018-12-06T14:54:30.647Z,12.61
2018-12-06T14:56:59.294Z,12.59
2018-12-06T14:59:27.964Z,12.59
2018-12-06T15:01:56.652Z,12.59
2018-12-06T15:04:25.336Z,12.60
2018-12-06T15:06:53.992Z,12.61
2018-12-06T15:09:22.679Z,12.60
2018-12-06T15:11:51.336Z,12.60
2018-12-06T15:14:20.006Z,12.61
2018-12-06T15:16:48.674Z,12.60
2018-12-06T15:19:17.774Z,12.60
2018-12-06T15:21:46.461Z,12.61
2018-12-06T15:24:15.163Z,12.60
2018-12-06T15:26:43.892Z,12.60
2018-12-06T15:29:12.626Z,12.60
2018-12-06T15:31:41.365Z,12.61
2018-12-06T15:34:10.034Z,12.60
2018-12-06T15:36:38.725Z,12.61
2018-12-06T15:39:08.668Z,12.61
2018-12-06T15:41:38.364Z,12.62
2018-12-06T15:44:07.099Z,12.61
2018-12-06T15:46:36.738Z,12.60
2018-12-06T15:49:05.445Z,12.60
2018-12-06T15:51:34.082Z,12.60
2018-12-06T15:54:03.331Z,12.60
2018-12-06T15:56:32.250Z,12.59
2018-12-06T15:59:00.966Z,12.60
2018-12-06T16:01:29.664Z,12.59
2018-12-06T16:03:58.382Z,12.60
2018-12-06T16:06:27.038Z,12.74
2018-12-06T16:08:55.696Z,12.67
2018-12-06T16:11:24.378Z,12.67
2018-12-06T16:13:53.028Z,12.66
2018-12-06T16:16:21.747Z,12.64
2018-12-06T16:18:50.444Z,12.65
2018-12-06T16:21:19.133Z,12.64
2018-12-06T16:23:47.786Z,12.64
2018-12-06T16:26:16.508Z,12.64
2018-12-06T16:28:45.191Z,12.65
2018-12-06T16:31:13.836Z,12.64
2018-12-06T16:33:42.498Z,12.65
2018-12-06T16:36:11.215Z,12.64
2018-12-06T16:38:39.886Z,12.64
2018-12-06T16:41:08.539Z,12.66
2018-12-06T16:43:37.193Z,12.65
2018-12-06T16:46:05.880Z,12.65
2018-12-06T16:48:34.567Z,12.66
2018-12-06T16:51:03.239Z,12.68
2018-12-06T16:53:31.869Z,12.66
2018-12-06T16:56:00.743Z,12.68
2018-12-06T16:58:29.400Z,12.67
2018-12-06T17:00:58.087Z,12.67
2018-12-06T17:03:26.872Z,12.68
2018-12-06T17:05:55.556Z,12.68
2018-12-06T17:08:24.237Z,12.67
2018-12-06T17:10:52.909Z,12.66
2018-12-06T17:13:21.551Z,12.67
2018-12-06T17:15:50.246Z,12.67
2018-12-06T17:18:19.255Z,12.69
2018-12-06T17:20:47.919Z,12.70
2018-12-06T17:23:16.613Z,12.71
2018-12-06T17:25:45.306Z,12.72
2018-12-06T17:28:14.040Z,12.72
2018-12-06T17:30:43.728Z,12.74
2018-12-06T17:33:12.426Z,12.74
2018-12-06T17:35:41.076Z,12.76
2018-12-06T17:38:09.722Z,12.79
2018-12-06T17:40:39.360Z,12.79
2018-12-06T17:43:08.102Z,12.79
2018-12-06T17:45:36.739Z,12.78
2018-12-06T17:48:05.412Z,12.80
2018-12-06T17:50:34.044Z,12.78
2018-12-06T17:53:02.684Z,12.79
2018-12-06T17:55:31.477Z,12.79
2018-12-06T17:58:00.107Z,12.80
2018-12-06T18:00:29.745Z,12.81
2018-12-06T18:02:58.419Z,12.82
2018-12-06T18:05:27.884Z,12.84
2018-12-06T18:07:56.554Z,12.84
2018-12-06T18:10:25.526Z,12.84
2018-12-06T18:12:54.169Z,12.86
2018-12-06T18:15:23.088Z,12.86
2018-12-06T18:17:51.758Z,12.86
2018-12-06T18:20:20.568Z,12.87
2018-12-06T18:22:49.267Z,12.85
2018-12-06T18:25:18.047Z,12.85
2018-12-06T18:27:46.724Z,12.88
2018-12-06T18:30:15.408Z,12.87
2018-12-06T18:32:44.083Z,12.88
2018-12-06T18:35:12.802Z,12.88
2018-12-06T18:37:41.622Z,12.87
2018-12-06T18:40:10.478Z,12.89
2018-12-06T18:42:39.170Z,12.90
2018-12-06T18:45:08.170Z,12.89
2018-12-06T18:47:36.834Z,12.89
2018-12-06T18:50:05.788Z,12.87
2018-12-06T18:52:35.529Z,12.86
2018-12-06T18:55:04.660Z,12.85
2018-12-06T18:57:33.314Z,12.85
2018-12-06T19:00:01.992Z,12.84
2018-12-06T19:02:30.691Z,12.84
2018-12-06T19:04:59.338Z,12.81
2018-12-06T19:07:28.522Z,12.84
2018-12-06T19:09:57.246Z,12.83
2018-12-06T19:12:26.818Z,12.83
2018-12-06T19:14:55.455Z,12.81
2018-12-06T19:17:24.118Z,12.82
2018-12-06T19:19:52.764Z,12.83
2018-12-06T19:22:21.460Z,12.82
2018-12-06T19:24:50.324Z,12.83
2018-12-06T19:27:18.985Z,12.82
2018-12-06T19:29:48.650Z,12.82
2018-12-06T19:32:17.358Z,12.85
2018-12-06T19:34:46.327Z,12.84
2018-12-06T19:37:15.011Z,12.84
2018-12-06T19:39:43.720Z,12.86
2018-12-06T19:42:12.397Z,12.86
2018-12-06T19:44:41.067Z,12.86
2018-12-06T19:47:09.739Z,12.88
2018-12-06T19:49:38.398Z,12.87
2018-12-06T19:52:07.063Z,12.88
2018-12-06T19:54:35.751Z,12.88
2018-12-06T19:57:04.458Z,12.89
2018-12-06T19:59:33.103Z,12.89
2018-12-06T20:02:01.838Z,12.90
2018-12-06T20:04:30.607Z,12.90
2018-12-06T20:06:59.282Z,12.90
2018-12-06T20:09:27.943Z,12.89
2018-12-06T20:11:56.618Z,12.91
2018-12-06T20:14:25.302Z,12.90
2018-12-06T20:16:54.468Z,12.91
2018-12-06T20:19:23.126Z,12.93
2018-12-06T20:21:51.738Z,12.92
2018-12-06T20:24:20.417Z,12.94
2018-12-06T20:26:49.087Z,12.93
2018-12-06T20:29:17.735Z,12.94
2018-12-06T20:31:46.394Z,12.93
2018-12-06T20:34:15.060Z,12.94
2018-12-06T20:36:43.692Z,12.94
2018-12-06T20:39:12.355Z,12.94
2018-12-06T20:41:40.990Z,12.95
2018-12-06T20:44:09.661Z,12.95
2018-12-06T20:46:38.281Z,12.97
2018-12-06T20:49:06.922Z,12.95
2018-12-06T20:51:35.566Z,12.96
2018-12-06T20:54:04.218Z,12.97
2018-12-06T20:56:32.902Z,12.94
2018-12-06T20:59:01.571Z,12.98
2018-12-06T21:01:30.250Z,12.97
2018-12-06T21:03:58.887Z,12.98
2018-12-06T21:06:27.527Z,12.99
2018-12-06T21:08:56.185Z,13.00
2018-12-06T21:11:25.663Z,13.00
2018-12-06T21:13:54.286Z,12.99
2018-12-06T21:16:22.888Z,13.00
2018-12-06T21:18:51.502Z,13.00
2018-12-06T21:21:20.116Z,12.99
2018-12-06T21:23:48.714Z,12.98
2018-12-06T21:26:17.358Z,12.98
2018-12-06T21:28:46.027Z,12.97
2018-12-06T21:31:14.690Z,12.96
2018-12-06T21:33:43.330Z,12.96
2018-12-06T21:36:11.981Z,12.96
2018-12-06T21:38:40.586Z,12.96
2018-12-06T21:41:09.203Z,12.95
2018-12-06T21:43:37.822Z,12.96
2018-12-06T21:46:06.456Z,12.95
2018-12-06T21:48:35.094Z,12.94
2018-12-06T21:51:03.847Z,12.91
2018-12-06T21:53:32.540Z,12.94
2018-12-06T21:56:01.197Z,12.93
2018-12-06T21:58:29.843Z,12.93
2018-12-06T22:00:58.496Z,12.93
2018-12-06T22:03:27.116Z,12.93
2018-12-06T22:05:55.776Z,12.94
2018-12-06T22:08:24.406Z,12.94
2018-12-06T22:10:53.070Z,12.93
2018-12-06T22:13:21.699Z,12.93
2018-12-06T22:15:50.302Z,12.92
2018-12-06T22:18:18.975Z,12.94
2018-12-06T22:20:47.618Z,12.93
2018-12-06T22:23:16.243Z,12.95
2018-12-06T22:25:44.863Z,12.94
2018-12-06T22:28:13.530Z,12.94
2018-12-06T22:30:42.170Z,12.95
2018-12-06T22:33:10.850Z,12.94
2018-12-06T22:35:39.480Z,12.96
2018-12-06T22:38:08.430Z,12.97
2018-12-06T22:40:37.103Z,12.99
2018-12-06T22:43:05.756Z,12.99
2018-12-06T22:46:05.066Z,12.99
2018-12-06T22:48:33.708Z,13.00
2018-12-06T22:51:02.344Z,13.01
2018-12-06T22:53:31.029Z,13.01
2018-12-06T22:55:59.850Z,13.03
2018-12-06T22:58:28.481Z,13.05
2018-12-06T23:00:59.093Z,13.06
2018-12-06T23:03:28.071Z,13.07
2018-12-06T23:05:56.727Z,13.08
2018-12-06T23:08:25.359Z,13.08
2018-12-06T23:10:54.159Z,13.09
2018-12-06T23:13:22.800Z,13.11
2018-12-06T23:15:51.411Z,13.11
2018-12-06T23:18:20.063Z,13.11
2018-12-06T23:20:48.686Z,13.13
2018-12-06T23:23:18.145Z,13.13
2018-12-06T23:25:46.798Z,13.13
2018-12-06T23:28:15.408Z,13.14
2018-12-06T23:30:44.029Z,13.13
2018-12-06T23:33:12.667Z,13.15
2018-12-06T23:35:41.286Z,13.15
2018-12-06T23:38:09.917Z,13.16
2018-12-06T23:40:39.521Z,13.16
2018-12-06T23:43:08.142Z,13.16
2018-12-06T23:45:36.767Z,13.15
2018-12-06T23:48:05.488Z,13.15
2018-12-06T23:50:34.258Z,13.11
2018-12-06T23:53:02.850Z,13.13
2018-12-06T23:55:31.463Z,13.13
2018-12-06T23:58:00.062Z,13.11
